Time;durP1;ratioP1;P1;durP2;ratioP2;P2;SDS_P1;SDS_P2;PMS_P1;PMS_P2;Temp;Humidity;BMP_temperature;BMP_pressure;BME280_temperature;BME280_humidity;BME280_pressure;Samples;Min_cycle;Max_cycle;Signal;HPM_P1;HPM_P2
2022/05/08 00:00:04;;;;;;;7.65;2.03;;;;;;;;;;5281589;28;20040;-69
2022/05/08 00:02:35;;;;;;;6.60;1.88;;;;;;;;;;5281456;28;20024;-70
2022/05/08 00:05:07;;;;;;;5.10;2.40;;;;;;;;;;5281043;28;20024;-70
2022/05/08 00:07:38;;;;;;;6.25;2.35;;;;;;;;;;5281775;28;20017;-69
2022/05/08 00:10:09;;;;;;;5.78;2.17;;;;;;;;;;5281611;28;20527;-70
2022/05/08 00:12:41;;;;;;;6.10;2.67;;;;;;;;;;5280852;28;20269;-69
2022/05/08 00:15:12;;;;;;;8.30;2.50;;;;;;;;;;5281230;28;20278;-70
2022/05/08 00:17:44;;;;;;;6.70;2.95;;;;;;;;;;5281765;28;20017;-69
2022/05/08 00:20:15;;;;;;;7.50;3.13;;;;;;;;;;5280929;28;20033;-69
2022/05/08 00:22:46;;;;;;;5.40;3.38;;;;;;;;;;5281703;28;20067;-70
2022/05/08 00:25:17;;;;;;;5.45;2.95;;;;;;;;;;5281520;28;20263;-70
2022/05/08 00:27:48;;;;;;;6.88;3.03;;;;;;;;;;5280543;28;20263;-70
2022/05/08 00:30:20;;;;;;;6.65;3.00;;;;;;;;;;5281258;28;20025;-69
2022/05/08 00:32:51;;;;;;;6.33;2.93;;;;;;;;;;5281098;28;20251;-69
2022/05/08 00:35:22;;;;;;;7.18;3.55;;;;;;;;;;5281195;28;20278;-70
2022/05/08 00:37:53;;;;;;;8.15;3.30;;;;;;;;;;5281998;28;20262;-70
2022/05/08 00:40:24;;;;;;;6.72;3.60;;;;;;;;;;5280039;28;20382;-70
2022/05/08 00:42:56;;;;;;;6.25;3.03;;;;;;;;;;5284290;28;20255;-69
2022/05/08 00:45:27;;;;;;;7.88;3.40;;;;;;;;;;5285156;28;20013;-70
2022/05/08 00:48:00;;;;;;;7.68;4.45;;;;;;;;;;5284992;28;20038;-70
2022/05/08 00:50:31;;;;;;;8.60;3.35;;;;;;;;;;5285113;28;20024;-70
2022/05/08 00:53:02;;;;;;;8.90;3.78;;;;;;;;;;5285448;28;20368;-69
2022/05/08 00:55:33;;;;;;;10.40;4.18;;;;;;;;;;5284585;28;20031;-69
2022/05/08 00:58:05;;;;;;;7.82;3.58;;;;;;;;;;5285245;28;20308;-70
2022/05/08 01:00:36;;;;;;;8.48;3.55;;;;;;;;;;5285110;28;20297;-69
2022/05/08 01:03:08;;;;;;;10.27;3.80;;;;;;;;;;5284217;28;20104;-69
2022/05/08 01:05:42;;;;;;;10.82;4.38;;;;;;;;;;5285014;28;20027;-69
2022/05/08 01:08:13;;;;;;;7.82;3.83;;;;;;;;;;5284468;28;20717;-69
2022/05/08 01:10:45;;;;;;;12.73;5.15;;;;;;;;;;5284941;28;20112;-69
2022/05/08 01:13:16;;;;;;;8.93;4.53;;;;;;;;;;5284785;28;20383;-70
2022/05/08 01:15:47;;;;;;;7.70;5.28;;;;;;;;;;5283872;28;20657;-70
2022/05/08 01:18:19;;;;;;;8.75;5.05;;;;;;;;;;5284573;28;20028;-70
2022/05/08 01:20:50;;;;;;;9.85;5.22;;;;;;;;;;5285043;28;20042;-69
2022/05/08 01:23:21;;;;;;;11.73;4.95;;;;;;;;;;5283533;28;20254;-70
2022/05/08 01:25:56;;;;;;;8.73;5.88;;;;;;;;;;5284973;28;20533;-70
2022/05/08 01:28:29;;;;;;;6.45;5.20;;;;;;;;;;5284202;28;20020;-69
2022/05/08 01:31:00;;;;;;;10.05;5.72;;;;;;;;;;5284050;28;20019;-70
2022/05/08 01:33:31;;;;;;;12.43;5.50;;;;;;;;;;5284488;28;20016;-69
2022/05/08 01:36:02;;;;;;;14.50;7.25;;;;;;;;;;5283894;28;20032;-69
2022/05/08 01:38:34;;;;;;;12.85;6.32;;;;;;;;;;5284344;28;20274;-70
2022/05/08 01:41:06;;;;;;;10.77;5.40;;;;;;;;;;5284287;28;20065;-70
2022/05/08 01:43:37;;;;;;;11.82;5.97;;;;;;;;;;5283735;28;20016;-70
2022/05/08 01:46:09;;;;;;;8.95;5.82;;;;;;;;;;5284292;28;20626;-70
2022/05/08 01:48:40;;;;;;;9.43;5.68;;;;;;;;;;5284315;28;20745;-69
2022/05/08 01:51:12;;;;;;;11.40;6.28;;;;;;;;;;5283420;28;20025;-69
2022/05/08 01:53:44;;;;;;;11.73;6.78;;;;;;;;;;5283685;28;20259;-70
2022/05/08 01:56:15;;;;;;;10.20;5.85;;;;;;;;;;5284179;28;20021;-69
2022/05/08 01:58:48;;;;;;;9.63;6.35;;;;;;;;;;5283100;28;20107;-69
2022/05/08 02:01:19;;;;;;;11.05;6.80;;;;;;;;;;5283380;28;20019;-69
2022/05/08 02:03:50;;;;;;;12.43;6.15;;;;;;;;;;5284064;28;20017;-69
2022/05/08 02:06:22;;;;;;;12.25;6.82;;;;;;;;;;5283025;28;20069;-69
2022/05/08 02:08:53;;;;;;;12.52;7.00;;;;;;;;;;5284283;28;20267;-69
2022/05/08 02:11:24;;;;;;;10.77;6.65;;;;;;;;;;5282641;28;20029;-70
2022/05/08 02:13:55;;;;;;;13.13;6.80;;;;;;;;;;5284004;28;20304;-69
2022/05/08 02:16:26;;;;;;;11.75;6.75;;;;;;;;;;5283198;28;20290;-69
2022/05/08 02:18:57;;;;;;;10.68;6.95;;;;;;;;;;5283131;28;20274;-69
2022/05/08 02:21:28;;;;;;;13.57;7.22;;;;;;;;;;5283100;28;20625;-68
2022/05/08 02:23:59;;;;;;;11.30;6.82;;;;;;;;;;5283771;28;20267;-69
2022/05/08 02:26:31;;;;;;;17.88;8.18;;;;;;;;;;5282315;28;20277;-70
2022/05/08 02:29:02;;;;;;;12.13;7.80;;;;;;;;;;5283613;28;20267;-69
2022/05/08 02:31:33;;;;;;;13.90;8.13;;;;;;;;;;5283455;28;20028;-69
2022/05/08 02:34:04;;;;;;;14.70;8.15;;;;;;;;;;5282766;28;20025;-69
2022/05/08 02:36:35;;;;;;;15.05;8.38;;;;;;;;;;5283302;28;20799;-70
2022/05/08 02:39:06;;;;;;;15.50;8.43;;;;;;;;;;5283048;28;20290;-69
2022/05/08 02:41:37;;;;;;;9.77;7.72;;;;;;;;;;5282592;28;20262;-69
2022/05/08 02:44:09;;;;;;;14.68;8.80;;;;;;;;;;5283249;28;20334;-70
2022/05/08 02:46:40;;;;;;;13.55;8.35;;;;;;;;;;5282288;28;20271;-69
2022/05/08 02:49:11;;;;;;;12.60;8.25;;;;;;;;;;5282871;28;20067;-70
2022/05/08 02:51:42;;;;;;;12.45;7.47;;;;;;;;;;5283064;28;20290;-70
2022/05/08 02:54:13;;;;;;;13.93;7.88;;;;;;;;;;5282275;28;20259;-70
2022/05/08 02:59:34;;;;;;;16.73;8.15;;;;;;;;;;5282811;28;20341;-70
2022/05/08 03:02:07;;;;;;;16.20;8.90;;;;;;;;;;5281757;28;20071;-69
2022/05/08 03:04:39;;;;;;;14.40;8.63;;;;;;;;;;5282631;28;20342;-70
2022/05/08 03:07:10;;;;;;;12.45;8.07;;;;;;;;;;5281805;28;20146;-69
2022/05/08 03:09:41;;;;;;;15.38;8.63;;;;;;;;;;5281834;28;20025;-70
2022/05/08 03:12:12;;;;;;;14.40;7.97;;;;;;;;;;5282458;28;20277;-70
2022/05/08 03:14:43;;;;;;;13.20;8.98;;;;;;;;;;5281612;28;20317;-69
2022/05/08 03:17:15;;;;;;;18.92;7.85;;;;;;;;;;5282646;28;20259;-69
2022/05/08 03:19:46;;;;;;;16.25;9.52;;;;;;;;;;5282471;28;20021;-69
2022/05/08 03:22:17;;;;;;;17.08;8.73;;;;;;;;;;5281715;28;20413;-68
2022/05/08 03:24:48;;;;;;;14.57;8.23;;;;;;;;;;5282323;28;20109;-68
2022/05/08 03:27:19;;;;;;;14.35;7.50;;;;;;;;;;5282035;28;20320;-69
2022/05/08 03:29:50;;;;;;;15.73;8.45;;;;;;;;;;5281849;28;20271;-69
2022/05/08 03:32:22;;;;;;;13.18;7.78;;;;;;;;;;5281823;28;20021;-68
2022/05/08 03:34:53;;;;;;;13.98;7.13;;;;;;;;;;5282154;28;20025;-69
2022/05/08 03:37:24;;;;;;;16.58;6.85;;;;;;;;;;5280728;28;20279;-71
2022/05/08 03:39:55;;;;;;;13.00;6.82;;;;;;;;;;5282225;28;20302;-69
2022/05/08 03:42:26;;;;;;;13.90;6.28;;;;;;;;;;5281533;28;20039;-70
2022/05/08 03:44:57;;;;;;;15.40;6.53;;;;;;;;;;5281457;28;20749;-70
2022/05/08 03:47:29;;;;;;;13.88;5.88;;;;;;;;;;5281339;28;20301;-69
2022/05/08 03:50:02;;;;;;;15.77;5.75;;;;;;;;;;5280974;28;20028;-70
2022/05/08 03:52:34;;;;;;;16.73;6.07;;;;;;;;;;5281662;28;20291;-70
2022/05/08 03:55:05;;;;;;;14.48;4.80;;;;;;;;;;5281524;28;20051;-69
2022/05/08 03:57:37;;;;;;;16.27;5.72;;;;;;;;;;5280625;28;20455;-69
2022/05/08 04:00:09;;;;;;;15.57;4.50;;;;;;;;;;5281300;28;20468;-70
2022/05/08 04:02:40;;;;;;;17.50;4.85;;;;;;;;;;5281455;28;20028;-70
2022/05/08 04:05:11;;;;;;;19.27;4.50;;;;;;;;;;5281140;28;20410;-70
2022/05/08 04:07:43;;;;;;;15.13;4.05;;;;;;;;;;5281498;28;20025;-69
2022/05/08 04:10:14;;;;;;;19.38;4.38;;;;;;;;;;5281734;28;20749;-70
2022/05/08 04:12:47;;;;;;;15.85;4.03;;;;;;;;;;5280642;28;20029;-70
2022/05/08 04:18:09;;;;;;;16.05;3.92;;;;;;;;;;5280693;28;20026;-70
2022/05/08 04:20:40;;;;;;;17.50;4.40;;;;;;;;;;5281441;28;20036;-69
2022/05/08 04:26:01;;;;;;;20.38;5.05;;;;;;;;;;5280940;28;20032;-70
2022/05/08 04:28:32;;;;;;;17.85;4.40;;;;;;;;;;5281182;28;20013;-70
2022/05/08 04:31:03;;;;;;;17.55;4.00;;;;;;;;;;5281302;28;20090;-70
2022/05/08 04:33:34;;;;;;;17.38;4.05;;;;;;;;;;5280519;28;20259;-69
2022/05/08 04:36:06;;;;;;;17.38;3.47;;;;;;;;;;5281301;28;20358;-69
2022/05/08 04:38:37;;;;;;;20.10;4.78;;;;;;;;;;5281225;28;20555;-69
2022/05/08 04:41:08;;;;;;;20.83;4.68;;;;;;;;;;5280462;28;20829;-69
2022/05/08 04:43:40;;;;;;;18.00;4.00;;;;;;;;;;5281336;28;20024;-69
2022/05/08 04:46:12;;;;;;;20.10;3.65;;;;;;;;;;5280329;28;20028;-70
2022/05/08 04:48:43;;;;;;;20.83;3.95;;;;;;;;;;5281403;28;20017;-70
2022/05/08 04:51:14;;;;;;;20.55;4.40;;;;;;;;;;5281362;28;20028;-70
2022/05/08 04:53:46;;;;;;;24.55;4.45;;;;;;;;;;5280471;28;20275;-69
2022/05/08 04:56:17;;;;;;;18.10;3.47;;;;;;;;;;5281193;28;20300;-69
2022/05/08 04:58:48;;;;;;;21.15;3.58;;;;;;;;;;5281022;28;20112;-69
2022/05/08 05:01:19;;;;;;;20.88;4.25;;;;;;;;;;5280032;28;20051;-69
2022/05/08 05:03:51;;;;;;;17.75;3.53;;;;;;;;;;5281719;28;20025;-70
2022/05/08 05:06:22;;;;;;;22.42;3.92;;;;;;;;;;5280804;28;20028;-70
2022/05/08 05:08:53;;;;;;;23.30;4.72;;;;;;;;;;5280561;28;20395;-70
2022/05/08 05:11:24;;;;;;;22.58;3.25;;;;;;;;;;5280832;28;20326;-70
2022/05/08 05:13:55;;;;;;;22.35;4.55;;;;;;;;;;5281184;28;20055;-70
2022/05/08 05:16:26;;;;;;;19.92;4.03;;;;;;;;;;5280048;28;20510;-69
2022/05/08 05:18:58;;;;;;;24.30;3.53;;;;;;;;;;5281132;28;20029;-69
2022/05/08 05:21:29;;;;;;;18.58;4.82;;;;;;;;;;5279707;28;20342;-70
2022/05/08 05:24:01;;;;;;;20.13;3.85;;;;;;;;;;5280944;28;20353;-69
2022/05/08 05:26:32;;;;;;;20.33;4.15;;;;;;;;;;5280714;28;20255;-69
2022/05/08 05:29:03;;;;;;;27.50;5.30;;;;;;;;;;5281211;28;20029;-69
2022/05/08 05:31:34;;;;;;;17.70;3.67;;;;;;;;;;5284401;28;20270;-70
2022/05/08 05:34:06;;;;;;;23.05;4.32;;;;;;;;;;5284384;28;20031;-69
2022/05/08 05:36:37;;;;;;;18.17;3.72;;;;;;;;;;5283877;28;21109;-70
2022/05/08 05:39:08;;;;;;;25.48;4.40;;;;;;;;;;5284482;28;20274;-70
2022/05/08 05:41:39;;;;;;;23.02;4.32;;;;;;;;;;5284449;28;20630;-70
2022/05/08 05:44:10;;;;;;;17.95;2.85;;;;;;;;;;5283945;28;20267;-69
2022/05/08 05:49:31;;;;;;;21.52;3.22;;;;;;;;;;5283854;28;20378;-70
2022/05/08 05:52:05;;;;;;;32.45;4.78;;;;;;;;;;5284467;28;20379;-70
2022/05/08 05:54:37;;;;;;;17.17;3.05;;;;;;;;;;5284110;28;20124;-69
2022/05/08 05:57:08;;;;;;;21.30;5.13;;;;;;;;;;5283249;28;20462;-69
2022/05/08 05:59:39;;;;;;;16.52;4.03;;;;;;;;;;5284073;28;20329;-70
2022/05/08 06:02:10;;;;;;;23.33;3.13;;;;;;;;;;5283989;28;20621;-70
2022/05/08 06:04:41;;;;;;;22.20;3.70;;;;;;;;;;5283197;28;20350;-70
2022/05/08 06:07:12;;;;;;;20.85;3.30;;;;;;;;;;5283730;28;20270;-70
2022/05/08 06:09:44;;;;;;;21.50;3.47;;;;;;;;;;5283953;28;20271;-70
2022/05/08 06:12:16;;;;;;;25.73;3.33;;;;;;;;;;5282788;28;20346;-70
2022/05/08 06:14:47;;;;;;;28.08;3.60;;;;;;;;;;5283673;28;20044;-69
2022/05/08 06:17:18;;;;;;;20.20;3.05;;;;;;;;;;5283208;28;20012;-69
2022/05/08 06:19:49;;;;;;;23.05;3.78;;;;;;;;;;5282902;28;20486;-69
2022/05/08 06:22:21;;;;;;;22.20;3.10;;;;;;;;;;5283212;28;20263;-69
2022/05/08 06:24:52;;;;;;;15.77;2.55;;;;;;;;;;5283178;28;20024;-69
2022/05/08 06:27:24;;;;;;;19.00;3.13;;;;;;;;;;5283083;28;20107;-70
2022/05/08 06:29:55;;;;;;;20.13;3.33;;;;;;;;;;5283696;28;20286;-69
2022/05/08 06:32:27;;;;;;;19.52;3.25;;;;;;;;;;5281839;28;20425;-69
2022/05/08 06:34:58;;;;;;;21.30;3.30;;;;;;;;;;5283445;28;20025;-70
2022/05/08 06:37:29;;;;;;;15.32;3.35;;;;;;;;;;5283002;28;20023;-70
2022/05/08 06:40:00;;;;;;;20.88;3.72;;;;;;;;;;5282077;28;20295;-70
2022/05/08 06:42:32;;;;;;;22.73;2.88;;;;;;;;;;5282970;28;20024;-69
2022/05/08 06:45:04;;;;;;;25.10;3.22;;;;;;;;;;5282970;28;20328;-69
2022/05/08 06:47:35;;;;;;;17.88;2.80;;;;;;;;;;5281946;28;20061;-69
2022/05/08 06:50:06;;;;;;;19.30;2.50;;;;;;;;;;5282681;28;20032;-69
2022/05/08 06:52:38;;;;;;;17.52;2.33;;;;;;;;;;5282118;28;20746;-70
2022/05/08 06:55:09;;;;;;;17.73;2.85;;;;;;;;;;5282764;28;20032;-69
2022/05/08 06:57:40;;;;;;;17.35;2.83;;;;;;;;;;5282993;28;20104;-69
2022/05/08 07:03:02;;;;;;;27.25;3.80;;;;;;;;;;5282700;28;20059;-69
2022/05/08 07:05:37;;;;;;;16.73;2.72;;;;;;;;;;5282582;28;20040;-70
2022/05/08 07:08:08;;;;;;;20.42;2.80;;;;;;;;;;5281989;28;20082;-68
2022/05/08 07:10:40;;;;;;;18.90;2.85;;;;;;;;;;5282661;28;20040;-69
2022/05/08 07:13:11;;;;;;;22.08;2.65;;;;;;;;;;5282467;28;20016;-69
2022/05/08 07:15:42;;;;;;;19.33;2.47;;;;;;;;;;5281440;28;20048;-69
2022/05/08 07:18:13;;;;;;;21.67;3.42;;;;;;;;;;5282029;28;20020;-69
2022/05/08 07:20:45;;;;;;;17.98;2.35;;;;;;;;;;5281576;28;20437;-69
2022/05/08 07:23:17;;;;;;;20.25;3.08;;;;;;;;;;5282512;28;20023;-69
2022/05/08 07:25:48;;;;;;;27.27;4.05;;;;;;;;;;5282410;28;20024;-70
2022/05/08 07:28:19;;;;;;;18.23;2.83;;;;;;;;;;5280968;28;20035;-69
2022/05/08 07:30:50;;;;;;;17.42;2.72;;;;;;;;;;5282259;28;20271;-70
2022/05/08 07:33:21;;;;;;;22.55;2.67;;;;;;;;;;5281487;28;20087;-70
2022/05/08 07:38:43;;;;;;;21.52;3.35;;;;;;;;;;5282278;28;20274;-70
2022/05/08 07:41:15;;;;;;;22.58;3.03;;;;;;;;;;5281724;28;20032;-69
2022/05/08 07:43:46;;;;;;;21.83;3.38;;;;;;;;;;5281267;28;20028;-69
2022/05/08 07:46:17;;;;;;;21.05;3.35;;;;;;;;;;5281655;28;20025;-69
2022/05/08 07:48:49;;;;;;;23.45;3.45;;;;;;;;;;5280663;28;20357;-70
2022/05/08 07:51:20;;;;;;;18.27;2.70;;;;;;;;;;5280363;28;20741;-69
2022/05/08 07:53:51;;;;;;;19.73;2.45;;;;;;;;;;5281907;28;20024;-69
2022/05/08 07:56:22;;;;;;;22.83;2.90;;;;;;;;;;5280655;28;20103;-70
2022/05/08 07:58:53;;;;;;;17.05;2.97;;;;;;;;;;5281936;28;20020;-69
2022/05/08 08:01:25;;;;;;;23.95;3.38;;;;;;;;;;5281090;28;20291;-69
2022/05/08 08:03:56;;;;;;;19.10;2.88;;;;;;;;;;5281101;28;20255;-69
2022/05/08 08:06:27;;;;;;;19.00;3.15;;;;;;;;;;5280966;28;20267;-70
2022/05/08 08:08:59;;;;;;;17.02;3.17;;;;;;;;;;5281752;28;20753;-70
2022/05/08 08:11:30;;;;;;;15.65;3.55;;;;;;;;;;5280416;28;20020;-69
2022/05/08 08:14:02;;;;;;;15.80;2.58;;;;;;;;;;5281354;28;20012;-69
2022/05/08 08:16:33;;;;;;;12.88;2.40;;;;;;;;;;5280882;28;20123;-70
2022/05/08 08:19:04;;;;;;;19.13;2.72;;;;;;;;;;5280377;28;20114;-70
2022/05/08 08:21:35;;;;;;;13.35;2.15;;;;;;;;;;5280970;28;20717;-70
2022/05/08 08:24:06;;;;;;;18.90;2.60;;;;;;;;;;5280414;28;20380;-70
2022/05/08 08:26:40;;;;;;;18.10;2.80;;;;;;;;;;5281199;28;20749;-70
2022/05/08 08:29:11;;;;;;;13.48;2.83;;;;;;;;;;5281188;28;20025;-69
2022/05/08 08:31:42;;;;;;;12.25;2.00;;;;;;;;;;5280564;28;20039;-69
2022/05/08 08:34:14;;;;;;;20.88;3.47;;;;;;;;;;5281124;28;20103;-70
2022/05/08 08:36:45;;;;;;;17.17;3.38;;;;;;;;;;5280968;28;20115;-70
2022/05/08 08:39:16;;;;;;;21.40;3.50;;;;;;;;;;5280256;28;20477;-70
2022/05/08 08:41:57;;;;;;;15.98;3.28;;;;;;;;;;5281424;28;20027;-71
2022/05/08 08:50:09;;;;;;;11.98;2.00;;;;;;;;;;5280931;28;20021;-70
2022/05/08 08:52:40;;;;;;;13.02;2.03;;;;;;;;;;5280389;28;20467;-70
2022/05/08 08:55:11;;;;;;;13.57;2.57;;;;;;;;;;5281130;28;20017;-70
2022/05/08 08:57:43;;;;;;;16.85;2.65;;;;;;;;;;5281232;28;20630;-70
2022/05/08 09:00:14;;;;;;;11.25;2.30;;;;;;;;;;5280057;28;20032;-70
2022/05/08 09:02:47;;;;;;;11.95;1.63;;;;;;;;;;5281241;28;20066;-70
2022/05/08 09:05:18;;;;;;;11.57;2.35;;;;;;;;;;5283869;28;20483;-71
2022/05/08 09:07:51;;;;;;;11.73;2.35;;;;;;;;;;5284890;28;20055;-70
2022/05/08 09:10:28;;;;;;;10.35;1.60;;;;;;;;;;5284707;28;20024;-71
2022/05/08 09:13:01;;;;;;;10.43;1.73;;;;;;;;;;5285181;28;20118;-71
2022/05/08 09:15:34;;;;;;;11.48;1.83;;;;;;;;;;5283795;28;20048;-71
2022/05/08 09:18:06;;;;;;;13.48;1.85;;;;;;;;;;5284881;28;20078;-70
2022/05/08 09:20:39;;;;;;;11.25;1.50;;;;;;;;;;5283690;28;20077;-70
2022/05/08 09:23:20;;;;;;;11.98;1.80;;;;;;;;;;5284595;28;20035;-71
2022/05/08 09:25:52;;;;;;;14.15;2.33;;;;;;;;;;5285076;28;20122;-70
2022/05/08 09:28:30;;;;;;;10.65;1.90;;;;;;;;;;5283527;28;20046;-70
2022/05/08 09:31:06;;;;;;;9.57;1.23;;;;;;;;;;5284467;28;20037;-71
2022/05/08 09:33:38;;;;;;;9.82;1.60;;;;;;;;;;5284231;28;20069;-70
2022/05/08 09:36:10;;;;;;;10.88;1.45;;;;;;;;;;5283540;28;20028;-69
2022/05/08 09:38:52;;;;;;;11.75;1.73;;;;;;;;;;5284441;28;20077;-69
2022/05/08 09:41:27;;;;;;;10.48;1.63;;;;;;;;;;5283183;28;20064;-70
2022/05/08 09:44:11;;;;;;;12.85;1.70;;;;;;;;;;5284685;28;20353;-71
2022/05/08 09:46:43;;;;;;;10.23;1.90;;;;;;;;;;5284445;28;20017;-70
2022/05/08 09:49:21;;;;;;;7.82;1.50;;;;;;;;;;5283557;28;20017;-70
2022/05/08 09:51:53;;;;;;;10.80;1.80;;;;;;;;;;5284417;28;20459;-71
2022/05/08 09:54:26;;;;;;;10.25;1.75;;;;;;;;;;5282216;28;20082;-70
2022/05/08 09:56:59;;;;;;;13.93;2.03;;;;;;;;;;5282947;28;20020;-71
2022/05/08 09:59:30;;;;;;;9.05;1.80;;;;;;;;;;5283315;28;20016;-72
2022/05/08 10:02:03;;;;;;;9.07;1.23;;;;;;;;;;5283972;28;20081;-70
2022/05/08 10:04:36;;;;;;;9.93;1.75;;;;;;;;;;5283068;28;20024;-72
2022/05/08 10:07:07;;;;;;;11.80;1.88;;;;;;;;;;5283830;28;20103;-72
2022/05/08 10:15:33;;;;;;;8.07;1.83;;;;;;;;;;5282134;28;20056;-71
2022/05/08 10:18:23;;;;;;;14.73;2.60;;;;;;;;;;5283137;28;20016;-71
2022/05/08 10:21:02;;;;;;;8.95;1.52;;;;;;;;;;5283918;28;20082;-72
2022/05/08 10:23:37;;;;;;;9.65;1.80;;;;;;;;;;5282676;28;20031;-72
2022/05/08 10:26:12;;;;;;;11.80;1.67;;;;;;;;;;5283351;28;20040;-71
2022/05/08 10:29:02;;;;;;;12.13;2.05;;;;;;;;;;5283418;28;20103;-71
2022/05/08 10:31:50;;;;;;;7.97;1.27;;;;;;;;;;5282560;28;20027;-72
2022/05/08 10:34:22;;;;;;;;;;;;;;;;;;5283596;28;20019;-72
2022/05/08 10:37:14;;;;;;;7.15;1.17;;;;;;;;;;5283444;28;20271;-71
2022/05/08 10:39:48;;;;;;;10.13;1.90;;;;;;;;;;5282411;28;20086;-70
2022/05/08 10:42:28;;;;;;;13.73;2.45;;;;;;;;;;5282882;28;20038;-71
2022/05/08 10:45:00;;;;;;;10.90;1.85;;;;;;;;;;5282782;28;20068;-71
2022/05/08 10:47:37;;;;;;;7.97;1.38;;;;;;;;;;5283038;28;20041;-71
2022/05/08 10:50:12;;;;;;;12.07;1.48;;;;;;;;;;5283161;28;20043;-71
2022/05/08 10:52:46;;;;;;;6.47;1.25;;;;;;;;;;5282161;28;20482;-71
2022/05/08 10:55:18;;;;;;;9.13;1.20;;;;;;;;;;5283146;28;20021;-71
2022/05/08 10:57:50;;;;;;;12.68;1.83;;;;;;;;;;5283391;28;20090;-71
2022/05/08 11:00:25;;;;;;;12.00;1.70;;;;;;;;;;5281741;28;20039;-71
2022/05/08 11:03:00;;;;;;;12.38;1.55;;;;;;;;;;5282911;28;20019;-71
2022/05/08 11:05:32;;;;;;;9.70;1.40;;;;;;;;;;5282543;28;20462;-69
2022/05/08 11:08:05;;;;;;;9.80;1.60;;;;;;;;;;5281996;28;20467;-70
2022/05/08 11:10:40;;;;;;;13.05;1.90;;;;;;;;;;5282624;28;20032;-71
2022/05/08 11:13:12;;;;;;;13.35;1.35;;;;;;;;;;5281929;28;20028;-70
2022/05/08 11:15:51;;;;;;;12.57;1.60;;;;;;;;;;5282262;28;20090;-71
2022/05/08 11:18:24;;;;;;;10.23;1.45;;;;;;;;;;5282361;28;20408;-68
2022/05/08 11:20:57;;;;;;;6.63;1.13;;;;;;;;;;5281885;28;20028;-70
2022/05/08 11:23:29;;;;;;;9.23;1.20;;;;;;;;;;5282025;28;20023;-70
2022/05/08 11:26:11;;;;;;;9.48;1.95;;;;;;;;;;5281859;28;20052;-70
2022/05/08 11:28:47;;;;;;;6.18;1.30;;;;;;;;;;5281405;28;20020;-70
2022/05/08 11:31:19;;;;;;;10.52;1.48;;;;;;;;;;5281816;28;20391;-70
2022/05/08 11:36:04;;;;;;;6.18;1.00;;;;;;;;;;5282280;28;20008;-71
2022/05/08 11:36:53;;;;;;;6.65;1.10;;;;;;;;;;5282223;28;20040;-71
2022/05/08 11:39:25;;;;;;;10.13;1.15;;;;;;;;;;5281726;28;20020;-71
2022/05/08 11:41:57;;;;;;;9.10;1.40;;;;;;;;;;5281612;28;20083;-71
2022/05/08 11:44:28;;;;;;;9.52;1.25;;;;;;;;;;5281653;28;20087;-71
2022/05/08 11:47:00;;;;;;;11.63;1.20;;;;;;;;;;5282008;28;20016;-71
2022/05/08 11:49:32;;;;;;;8.40;1.35;;;;;;;;;;5281017;28;20266;-70
2022/05/08 11:52:04;;;;;;;8.32;1.17;;;;;;;;;;5281952;28;20021;-69
2022/05/08 11:54:36;;;;;;;8.60;1.00;;;;;;;;;;5281654;28;20017;-70
2022/05/08 11:57:11;;;;;;;8.77;1.63;;;;;;;;;;5280930;28;20024;-69
2022/05/08 11:59:46;;;;;;;9.40;1.20;;;;;;;;;;5281827;28;20035;-68
2022/05/08 12:02:18;;;;;;;8.57;1.17;;;;;;;;;;5280970;28;20555;-68
2022/05/08 12:04:53;;;;;;;7.82;1.02;;;;;;;;;;5282012;28;20059;-68
2022/05/08 12:07:25;;;;;;;8.85;1.30;;;;;;;;;;5281188;28;20094;-68
2022/05/08 12:09:56;;;;;;;7.35;0.98;;;;;;;;;;5280984;28;20032;-68
2022/05/08 12:12:29;;;;;;;9.20;1.30;;;;;;;;;;5281019;28;20096;-68
2022/05/08 12:15:02;;;;;;;8.85;0.98;;;;;;;;;;5281485;28;20302;-68
2022/05/08 12:17:39;;;;;;;4.80;0.60;;;;;;;;;;5280483;28;20035;-68
2022/05/08 12:20:20;;;;;;;9.38;1.40;;;;;;;;;;5281207;28;20045;-68
2022/05/08 12:23:05;;;;;;;7.20;1.15;;;;;;;;;;5281678;28;20021;-67
2022/05/08 12:25:38;;;;;;;8.52;1.35;;;;;;;;;;5280906;28;20020;-68
2022/05/08 12:28:12;;;;;;;8.10;1.23;;;;;;;;;;5281318;28;20021;-68
2022/05/08 12:30:44;;;;;;;6.85;1.30;;;;;;;;;;5280623;28;20174;-69
2022/05/08 12:33:16;;;;;;;6.65;1.08;;;;;;;;;;5281445;28;20108;-68
2022/05/08 12:35:47;;;;;;;6.72;1.17;;;;;;;;;;5281337;28;20581;-68
2022/05/08 12:38:18;;;;;;;8.50;1.13;;;;;;;;;;5281985;28;20027;-69
2022/05/08 12:40:49;;;;;;;7.10;1.10;;;;;;;;;;5285665;28;20310;-68
2022/05/08 12:43:21;;;;;;;6.15;1.02;;;;;;;;;;5280672;28;20138;-69
2022/05/08 12:45:52;;;;;;;6.05;0.90;;;;;;;;;;5284044;28;20021;-68
2022/05/08 12:48:23;;;;;;;11.32;2.20;;;;;;;;;;5284793;28;20039;-70
2022/05/08 12:50:54;;;;;;;8.95;2.00;;;;;;;;;;5285344;28;20122;-70
2022/05/08 12:53:26;;;;;;;9.32;1.17;;;;;;;;;;5283894;28;20016;-69
2022/05/08 12:55:57;;;;;;;12.25;1.25;;;;;;;;;;5285700;28;20021;-70
2022/05/08 13:01:18;;;;;;;7.07;0.98;;;;;;;;;;5284855;28;20793;-69
2022/05/08 13:03:49;;;;;;;11.73;0.70;;;;;;;;;;5285273;28;20024;-70
2022/05/08 13:06:21;;;;;;;6.57;0.70;;;;;;;;;;5283925;28;20030;-70
2022/05/08 13:08:53;;;;;;;7.60;0.70;;;;;;;;;;5283357;28;20058;-67
2022/05/08 13:11:24;;;;;;;4.32;0.55;;;;;;;;;;5290751;28;20016;-69
2022/05/08 13:13:56;;;;;;;8.27;0.85;;;;;;;;;;5295604;28;20028;-69
2022/05/08 13:16:27;;;;;;;5.88;0.90;;;;;;;;;;5287531;28;20091;-69
2022/05/08 13:18:58;;;;;;;8.43;0.70;;;;;;;;;;5285291;28;20098;-69
2022/05/08 13:21:30;;;;;;;5.80;0.60;;;;;;;;;;5283636;28;20033;-70
2022/05/08 13:24:01;;;;;;;5.55;1.20;;;;;;;;;;5283040;28;20441;-70
2022/05/08 13:26:33;;;;;;;4.78;0.80;;;;;;;;;;5281064;28;20021;-68
2022/05/08 13:29:04;;;;;;;5.88;0.60;;;;;;;;;;5271145;28;20115;-68
2022/05/08 13:31:38;;;;;;;8.45;0.80;;;;;;;;;;5285596;28;20020;-70
2022/05/08 13:34:09;;;;;;;6.03;0.98;;;;;;;;;;5276868;28;20375;-70
2022/05/08 13:36:41;;;;;;;6.60;0.80;;;;;;;;;;5284839;28;20041;-70
2022/05/08 13:39:12;;;;;;;6.30;0.80;;;;;;;;;;5283935;28;20035;-69
2022/05/08 13:41:44;;;;;;;6.68;0.70;;;;;;;;;;5279766;28;20025;-69
2022/05/08 13:44:15;;;;;;;6.95;0.82;;;;;;;;;;5287165;28;20009;-69
2022/05/08 13:46:47;;;;;;;2.55;0.50;;;;;;;;;;5284838;28;20052;-69
2022/05/08 13:49:19;;;;;;;4.55;0.60;;;;;;;;;;5280722;28;20095;-68
2022/05/08 13:51:51;;;;;;;5.05;0.70;;;;;;;;;;5284109;27;20091;-69
2022/05/08 13:54:22;;;;;;;6.45;0.40;;;;;;;;;;5283894;28;20113;-68
2022/05/08 13:56:58;;;;;;;6.85;0.70;;;;;;;;;;5285735;28;20056;-69
2022/05/08 13:59:30;;;;;;;5.93;0.80;;;;;;;;;;5283790;28;20121;-69
2022/05/08 14:02:01;;;;;;;7.63;0.82;;;;;;;;;;5281097;28;20110;-70
2022/05/08 14:04:32;;;;;;;5.53;0.60;;;;;;;;;;5283873;28;20036;-69
2022/05/08 14:07:03;;;;;;;4.15;0.60;;;;;;;;;;5286791;28;20012;-70
2022/05/08 14:09:35;;;;;;;6.88;0.70;;;;;;;;;;5265205;28;20056;-69
2022/05/08 14:12:06;;;;;;;5.60;0.50;;;;;;;;;;5270108;28;20491;-68
2022/05/08 14:14:38;;;;;;;7.15;0.60;;;;;;;;;;5281932;28;21060;-69
2022/05/08 14:17:09;;;;;;;7.43;0.70;;;;;;;;;;5282747;28;20044;-69
2022/05/08 14:19:40;;;;;;;6.13;1.10;;;;;;;;;;5286183;28;20021;-69
2022/05/08 14:22:11;;;;;;;4.28;0.50;;;;;;;;;;5284592;28;20357;-69
2022/05/08 14:24:42;;;;;;;4.85;0.70;;;;;;;;;;5279021;28;20018;-68
2022/05/08 14:27:13;;;;;;;5.55;0.80;;;;;;;;;;5278566;28;20060;-68
2022/05/08 14:29:45;;;;;;;4.25;0.60;;;;;;;;;;5295694;28;20051;-69
2022/05/08 14:37:56;;;;;;;5.28;0.50;;;;;;;;;;5262038;28;20361;-68
2022/05/08 14:40:29;;;;;;;8.30;1.00;;;;;;;;;;5261514;28;20032;-67
2022/05/08 14:43:00;;;;;;;9.10;0.70;;;;;;;;;;5262075;28;20364;-69
2022/05/08 14:45:31;;;;;;;4.30;0.70;;;;;;;;;;5261214;28;20021;-69
2022/05/08 14:48:04;;;;;;;4.00;0.52;;;;;;;;;;5262011;28;20021;-68
2022/05/08 14:50:35;;;;;;;6.65;0.73;;;;;;;;;;5261737;28;20112;-69
2022/05/08 14:53:11;;;;;;;5.82;0.95;;;;;;;;;;5261122;28;20104;-68
2022/05/08 14:55:42;;;;;;;7.35;0.60;;;;;;;;;;5261786;28;20056;-68
2022/05/08 14:58:15;;;;;;;5.97;0.60;;;;;;;;;;5261204;28;20048;-69
2022/05/08 15:00:47;;;;;;;6.78;0.93;;;;;;;;;;5261083;28;20048;-70
2022/05/08 15:03:18;;;;;;;4.78;0.55;;;;;;;;;;5261643;28;20414;-70
2022/05/08 15:05:50;;;;;;;3.72;0.50;;;;;;;;;;5260921;28;20096;-70
2022/05/08 15:08:21;;;;;;;4.45;0.60;;;;;;;;;;5260874;28;20097;-68
2022/05/08 15:10:52;;;;;;;7.30;0.70;;;;;;;;;;5261672;28;20103;-68
2022/05/08 15:13:23;;;;;;;5.63;0.80;;;;;;;;;;5260431;28;20742;-68
2022/05/08 15:15:54;;;;;;;8.88;0.70;;;;;;;;;;5261721;28;20103;-70
2022/05/08 15:21:16;;;;;;;4.03;0.60;;;;;;;;;;5260667;28;20347;-69
2022/05/08 15:23:47;;;;;;;4.63;0.80;;;;;;;;;;5261330;28;20044;-69
2022/05/08 15:26:18;;;;;;;6.57;0.68;;;;;;;;;;5260570;28;20070;-69
2022/05/08 15:28:50;;;;;;;8.05;0.80;;;;;;;;;;5261773;28;20017;-68
2022/05/08 15:31:21;;;;;;;5.70;0.90;;;;;;;;;;5261081;28;20045;-69
2022/05/08 15:33:52;;;;;;;5.75;0.65;;;;;;;;;;5260847;28;20533;-68
2022/05/08 15:36:23;;;;;;;6.90;0.60;;;;;;;;;;5261098;28;20024;-69
2022/05/08 15:38:54;;;;;;;5.47;0.77;;;;;;;;;;5261582;28;20025;-68
2022/05/08 15:41:25;;;;;;;5.43;0.68;;;;;;;;;;5259945;28;20041;-70
2022/05/08 15:43:57;;;;;;;8.73;0.80;;;;;;;;;;5261262;28;20035;-69